createdAt,value
2018-09-09T00:00:55.855Z,99.90
2018-09-09T00:03:24.371Z,99.90
2018-09-09T00:05:52.913Z,99.90
2018-09-09T00:08:21.445Z,99.90
2018-09-09T00:10:50.060Z,99.90
2018-09-09T00:13:18.651Z,99.90
2018-09-09T00:15:47.203Z,99.90
2018-09-09T00:18:15.716Z,99.90
2018-09-09T00:20:44.263Z,99.90
2018-09-09T00:23:12.864Z,99.90
2018-09-09T00:25:41.406Z,99.90
2018-09-09T00:28:09.987Z,99.90
2018-09-09T00:30:38.606Z,99.90
2018-09-09T00:33:07.240Z,99.90
2018-09-09T00:35:35.861Z,99.90
2018-09-09T00:38:04.452Z,99.90
2018-09-09T00:40:33.026Z,99.90
2018-09-09T00:43:01.570Z,99.90
2018-09-09T00:45:30.101Z,99.90
2018-09-09T00:47:58.784Z,99.90
2018-09-09T00:50:32.508Z,99.90
2018-09-09T00:53:06.144Z,99.90
2018-09-09T00:55:34.751Z,99.90
2018-09-09T00:58:03.273Z,99.90
2018-09-09T01:00:37.148Z,99.90
2018-09-09T01:03:05.887Z,99.90
2018-09-09T01:05:35.164Z,99.90
2018-09-09T01:08:03.766Z,99.90
2018-09-09T01:10:32.320Z,99.90
2018-09-09T01:13:00.916Z,99.90
2018-09-09T01:15:29.500Z,99.90
2018-09-09T01:17:58.073Z,99.90
2018-09-09T01:20:26.627Z,99.90
2018-09-09T01:22:55.174Z,99.90
2018-09-09T01:25:23.734Z,99.90
2018-09-09T01:27:52.293Z,99.90
2018-09-09T01:30:21.534Z,99.90
2018-09-09T01:32:50.061Z,99.90
2018-09-09T01:35:18.607Z,99.90
2018-09-09T01:37:47.145Z,99.90
2018-09-09T01:40:15.702Z,99.90
2018-09-09T01:42:44.773Z,99.90
2018-09-09T01:45:13.325Z,99.90
2018-09-09T01:47:41.921Z,99.90
2018-09-09T01:50:10.563Z,99.90
2018-09-09T01:52:39.129Z,99.90
2018-09-09T01:55:07.783Z,99.90
2018-09-09T01:57:36.303Z,99.90
2018-09-09T02:00:04.949Z,99.90
2018-09-09T02:02:33.565Z,99.90
2018-09-09T02:05:02.120Z,99.90
2018-09-09T02:07:30.637Z,99.90
2018-09-09T02:09:59.225Z,99.90
2018-09-09T02:12:27.755Z,99.90
2018-09-09T02:14:56.319Z,99.90
2018-09-09T02:17:24.911Z,99.90
2018-09-09T02:19:53.446Z,99.90
2018-09-09T02:22:21.968Z,99.90
2018-09-09T02:24:50.548Z,99.90
2018-09-09T02:27:19.051Z,99.90
2018-09-09T02:29:47.575Z,99.90
2018-09-09T02:32:16.117Z,99.90
2018-09-09T02:34:44.710Z,99.90
2018-09-09T02:37:13.406Z,99.90
2018-09-09T02:39:42.115Z,99.90
2018-09-09T02:42:10.695Z,99.90
2018-09-09T02:44:39.288Z,99.90
2018-09-09T02:47:08.109Z,99.90
2018-09-09T02:49:36.642Z,99.90
2018-09-09T02:52:05.173Z,99.90
2018-09-09T02:54:33.739Z,99.90
2018-09-09T02:57:02.289Z,99.90
2018-09-09T02:59:30.842Z,99.90
2018-09-09T03:01:59.450Z,99.90
2018-09-09T03:04:28.001Z,99.90
2018-09-09T03:06:57.317Z,99.90
2018-09-09T03:09:25.866Z,99.90
2018-09-09T03:11:54.388Z,99.90
2018-09-09T03:14:22.941Z,99.90
2018-09-09T03:16:51.506Z,99.90
2018-09-09T03:19:20.087Z,99.90
2018-09-09T03:21:48.660Z,99.90
2018-09-09T03:24:17.263Z,99.90
2018-09-09T03:26:45.779Z,99.90
2018-09-09T03:29:14.303Z,99.90
2018-09-09T03:31:42.869Z,99.90
2018-09-09T03:34:11.369Z,99.90
2018-09-09T03:36:39.895Z,99.90
2018-09-09T03:39:09.483Z,99.90
2018-09-09T03:41:38.230Z,99.90
2018-09-09T03:44:06.791Z,99.90
2018-09-09T03:46:35.497Z,99.90
2018-09-09T03:49:04.211Z,99.90
2018-09-09T03:51:32.749Z,99.90
2018-09-09T03:54:01.295Z,99.90
2018-09-09T03:56:29.954Z,99.90
2018-09-09T03:58:58.552Z,99.90
2018-09-09T04:01:27.166Z,99.90
2018-09-09T04:03:55.688Z,99.90
2018-09-09T04:06:24.630Z,99.90
2018-09-09T04:08:53.252Z,99.90
2018-09-09T04:11:21.839Z,99.90
2018-09-09T04:13:50.485Z,99.90
2018-09-09T04:16:19.018Z,99.90
2018-09-09T04:18:47.568Z,99.90
2018-09-09T04:21:16.066Z,99.90
2018-09-09T04:23:44.600Z,99.90
2018-09-09T04:26:13.118Z,99.90
2018-09-09T04:28:41.656Z,99.90
2018-09-09T04:31:10.880Z,99.90
2018-09-09T04:33:39.493Z,99.90
2018-09-09T04:36:08.591Z,99.90
2018-09-09T04:38:37.118Z,99.90
2018-09-09T04:41:05.719Z,99.90
2018-09-09T04:43:34.235Z,99.90
2018-09-09T04:46:02.779Z,99.90
2018-09-09T04:48:31.368Z,99.90
2018-09-09T04:50:59.942Z,99.90
2018-09-09T04:53:28.499Z,99.90
2018-09-09T04:55:57.041Z,99.90
2018-09-09T04:58:25.616Z,99.90
2018-09-09T05:00:54.603Z,99.90
2018-09-09T05:03:23.803Z,99.90
2018-09-09T05:05:52.363Z,99.90
2018-09-09T05:08:20.945Z,99.90
2018-09-09T05:10:49.546Z,99.90
2018-09-09T05:13:18.076Z,99.90
2018-09-09T05:15:46.638Z,99.90
2018-09-09T05:18:16.093Z,99.90
2018-09-09T05:20:44.634Z,99.90
2018-09-09T05:23:13.170Z,99.90
2018-09-09T05:25:41.772Z,99.90
2018-09-09T05:28:10.301Z,99.90
2018-09-09T05:30:39.751Z,99.90
2018-09-09T05:33:08.312Z,99.90
2018-09-09T05:35:36.827Z,99.90
2018-09-09T05:38:05.559Z,99.90
2018-09-09T05:40:34.158Z,99.90
2018-09-09T05:43:02.795Z,99.90
2018-09-09T05:45:31.472Z,99.90
2018-09-09T05:47:59.978Z,99.90
2018-09-09T05:50:28.566Z,99.90
2018-09-09T05:52:57.096Z,99.90
2018-09-09T05:55:25.629Z,99.90
2018-09-09T05:57:54.223Z,99.90
2018-09-09T06:00:23.085Z,99.90
2018-09-09T06:02:51.982Z,99.90
2018-09-09T06:05:20.575Z,99.90
2018-09-09T06:07:49.136Z,99.90
2018-09-09T06:10:17.641Z,99.90
2018-09-09T06:12:46.289Z,99.90
2018-09-09T06:15:14.991Z,99.90
2018-09-09T06:17:44.844Z,99.90
2018-09-09T06:20:13.395Z,99.90
2018-09-09T06:22:41.989Z,99.90
2018-09-09T06:25:10.557Z,99.90
2018-09-09T06:27:39.175Z,99.90
2018-09-09T06:30:07.763Z,99.90
2018-09-09T06:32:36.296Z,99.90
2018-09-09T06:35:04.913Z,99.90
2018-09-09T06:37:33.503Z,99.90
2018-09-09T06:40:02.115Z,99.90
2018-09-09T06:42:30.822Z,99.90
2018-09-09T06:44:59.390Z,99.90
2018-09-09T06:47:27.935Z,99.90
2018-09-09T06:49:56.565Z,99.90
2018-09-09T06:52:25.085Z,99.90
2018-09-09T06:54:53.612Z,99.90
2018-09-09T06:57:22.145Z,99.90
2018-09-09T06:59:50.661Z,99.90
2018-09-09T07:02:19.259Z,99.90
2018-09-09T07:04:49.338Z,99.90
2018-09-09T07:07:17.884Z,99.90
2018-09-09T07:09:46.475Z,99.90
2018-09-09T07:12:15.026Z,99.90
2018-09-09T07:14:43.597Z,99.90
2018-09-09T07:17:12.201Z,99.90
2018-09-09T07:19:40.711Z,99.90
2018-09-09T07:22:09.312Z,99.90
2018-09-09T07:24:37.873Z,99.90
2018-09-09T07:27:06.494Z,99.90
2018-09-09T07:29:35.068Z,99.90
2018-09-09T07:32:03.592Z,99.90
2018-09-09T07:34:32.146Z,99.90
2018-09-09T07:37:00.706Z,99.90
2018-09-09T07:39:29.212Z,99.90
2018-09-09T07:41:57.726Z,99.90
2018-09-09T07:44:26.321Z,99.90
2018-09-09T07:46:54.869Z,99.90
2018-09-09T07:49:23.559Z,99.90
2018-09-09T07:51:52.133Z,99.90
2018-09-09T07:54:20.711Z,99.90
2018-09-09T07:56:49.293Z,99.90
2018-09-09T07:59:17.867Z,99.90
2018-09-09T08:01:46.449Z,99.90
2018-09-09T08:04:15.047Z,99.90
2018-09-09T08:06:43.645Z,99.90
2018-09-09T08:09:12.373Z,99.90
2018-09-09T08:11:40.987Z,99.90
2018-09-09T08:14:10.477Z,99.90
2018-09-09T08:16:39.027Z,99.90
2018-09-09T08:19:07.705Z,99.50
2018-09-09T08:21:36.283Z,99.90
2018-09-09T08:24:04.991Z,99.30
2018-09-09T08:26:33.571Z,98.20
2018-09-09T08:29:02.147Z,98.70
2018-09-09T08:31:30.686Z,99.90
2018-09-09T08:33:59.237Z,98.90
2018-09-09T08:36:27.873Z,98.00
2018-09-09T08:38:56.444Z,97.30
2018-09-09T08:41:25.007Z,99.60
2018-09-09T08:43:53.588Z,97.40
2018-09-09T08:46:22.180Z,96.60
2018-09-09T08:48:50.808Z,98.00
2018-09-09T08:51:19.344Z,97.70
2018-09-09T08:53:47.870Z,98.50
2018-09-09T08:56:16.424Z,97.00
2018-09-09T08:58:44.992Z,97.30
2018-09-09T09:01:13.637Z,96.90
2018-09-09T09:03:42.217Z,97.10
2018-09-09T09:06:10.797Z,96.00
2018-09-09T09:08:39.332Z,95.60
2018-09-09T09:11:07.936Z,95.30
2018-09-09T09:13:36.509Z,94.20
2018-09-09T09:16:05.083Z,95.40
2018-09-09T09:18:33.845Z,95.30
2018-09-09T09:21:02.379Z,94.80
2018-09-09T09:23:30.940Z,95.10
2018-09-09T09:25:59.466Z,94.50
2018-09-09T09:28:28.003Z,93.30
2018-09-09T09:30:56.585Z,92.70
2018-09-09T09:33:25.167Z,93.00
2018-09-09T09:35:54.605Z,92.90
2018-09-09T09:38:23.615Z,93.00
2018-09-09T09:40:52.823Z,93.60
2018-09-09T09:43:21.371Z,92.80
2018-09-09T09:45:49.988Z,93.30
2018-09-09T09:48:18.842Z,93.30
2018-09-09T09:50:47.403Z,94.50
2018-09-09T09:53:15.995Z,92.80
2018-09-09T09:55:44.519Z,91.10
2018-09-09T09:58:13.372Z,90.20
2018-09-09T10:00:47.334Z,91.30
2018-09-09T10:03:15.949Z,93.30
2018-09-09T10:05:44.500Z,92.20
2018-09-09T10:08:13.038Z,93.20
2018-09-09T10:10:41.660Z,92.90
2018-09-09T10:13:10.236Z,93.00
2018-09-09T10:15:38.786Z,95.30
2018-09-09T10:18:07.408Z,95.60
2018-09-09T10:20:35.984Z,92.90
2018-09-09T10:23:04.609Z,94.30
2018-09-09T10:25:33.215Z,93.20
2018-09-09T10:28:01.752Z,92.10
2018-09-09T10:30:30.344Z,93.60
2018-09-09T10:32:58.937Z,90.90
2018-09-09T10:35:27.495Z,91.80
2018-09-09T10:37:56.032Z,92.40
2018-09-09T10:40:24.703Z,92.00
2018-09-09T10:42:53.273Z,93.20
2018-09-09T10:45:21.808Z,92.30
2018-09-09T10:47:50.376Z,93.50
2018-09-09T10:50:18.926Z,91.70
2018-09-09T10:52:47.456Z,90.60
2018-09-09T10:55:16.062Z,90.50
2018-09-09T10:57:44.625Z,89.10
2018-09-09T11:00:13.397Z,89.50
2018-09-09T11:02:42.011Z,89.80
2018-09-09T11:05:10.624Z,92.30
2018-09-09T11:07:39.200Z,91.70
2018-09-09T11:10:07.824Z,93.30
2018-09-09T11:12:36.490Z,92.20
2018-09-09T11:15:05.125Z,91.30
2018-09-09T11:17:33.667Z,91.00
2018-09-09T11:20:02.243Z,92.20
2018-09-09T11:22:30.789Z,88.10
2018-09-09T11:25:00.539Z,87.60
2018-09-09T11:27:29.078Z,90.10
2018-09-09T11:29:57.680Z,90.40
2018-09-09T11:32:26.208Z,88.60
2018-09-09T11:34:54.832Z,90.20
2018-09-09T11:37:23.422Z,87.40
2018-09-09T11:39:52.049Z,86.30
2018-09-09T11:42:20.625Z,87.40
2018-09-09T11:44:49.193Z,87.90
2018-09-09T11:47:18.510Z,91.70
2018-09-09T11:49:47.122Z,88.40
2018-09-09T11:52:15.791Z,88.30
2018-09-09T11:54:44.397Z,88.00
2018-09-09T11:57:13.037Z,90.70
2018-09-09T11:59:41.608Z,91.60
2018-09-09T12:02:10.293Z,88.90
2018-09-09T12:04:38.872Z,87.90
2018-09-09T12:07:07.471Z,84.80
2018-09-09T12:09:36.125Z,85.00
2018-09-09T12:12:05.004Z,84.70
2018-09-09T12:14:33.755Z,85.60
2018-09-09T12:17:02.451Z,86.80
2018-09-09T12:19:31.570Z,85.10
2018-09-09T12:22:01.530Z,81.60
2018-09-09T12:24:30.443Z,81.20
2018-09-09T12:26:59.166Z,82.00
2018-09-09T12:29:27.993Z,80.00
2018-09-09T12:31:56.591Z,77.70
2018-09-09T12:34:25.162Z,78.90
2018-09-09T12:36:53.773Z,78.20
2018-09-09T12:39:22.393Z,73.50
2018-09-09T12:41:50.938Z,75.60
2018-09-09T12:44:24.835Z,76.40
2018-09-09T12:46:58.664Z,75.90
2018-09-09T12:49:27.269Z,72.70
2018-09-09T12:51:55.873Z,73.60
2018-09-09T12:54:24.584Z,73.10
2018-09-09T12:56:53.194Z,76.20
2018-09-09T12:59:21.888Z,71.80
2018-09-09T13:01:50.508Z,72.40
2018-09-09T13:04:19.067Z,73.00
2018-09-09T13:06:47.767Z,71.20
2018-09-09T13:09:16.369Z,70.30
2018-09-09T13:11:45.009Z,70.00
2018-09-09T13:14:13.568Z,69.70
2018-09-09T13:16:42.114Z,70.80
2018-09-09T13:19:10.717Z,69.10
2018-09-09T13:21:39.372Z,69.60
2018-09-09T13:24:08.045Z,70.10
2018-09-09T13:26:36.679Z,69.20
2018-09-09T13:29:05.425Z,69.20
2018-09-09T13:31:34.005Z,71.20
2018-09-09T13:34:03.596Z,68.20
2018-09-09T13:36:32.222Z,66.30
2018-09-09T13:39:00.764Z,68.00
2018-09-09T13:41:29.400Z,66.10
2018-09-09T13:43:58.076Z,66.40
2018-09-09T13:46:26.661Z,74.60
2018-09-09T13:48:55.286Z,70.50
2018-09-09T13:51:23.862Z,69.50
2018-09-09T13:53:52.683Z,67.80
2018-09-09T13:56:21.279Z,73.30
2018-09-09T13:58:49.853Z,75.90
2018-09-09T14:01:18.456Z,70.80
2018-09-09T14:03:47.062Z,67.40
2018-09-09T14:06:15.751Z,67.20
2018-09-09T14:08:44.351Z,70.50
2018-09-09T14:11:12.997Z,67.20
2018-09-09T14:13:41.601Z,66.70
2018-09-09T14:16:10.124Z,68.80
2018-09-09T14:18:38.833Z,64.40
2018-09-09T14:21:07.608Z,64.50
2018-09-09T14:23:36.232Z,68.20
2018-09-09T14:26:04.830Z,66.70
2018-09-09T14:28:33.402Z,62.30
2018-09-09T14:31:02.031Z,61.30
2018-09-09T14:33:30.621Z,61.20
2018-09-09T14:35:59.319Z,64.50
2018-09-09T14:38:27.989Z,62.30
2018-09-09T14:40:56.548Z,59.10
2018-09-09T14:43:25.124Z,59.50
2018-09-09T14:45:55.017Z,58.80
2018-09-09T14:48:23.534Z,60.60
2018-09-09T14:50:52.230Z,58.00
2018-09-09T14:53:20.882Z,57.40
2018-09-09T14:55:49.442Z,58.20
2018-09-09T14:58:18.025Z,58.50
2018-09-09T15:00:46.681Z,58.20
2018-09-09T15:03:15.286Z,59.00
2018-09-09T15:05:43.960Z,57.50
2018-09-09T15:08:12.593Z,57.70
2018-09-09T15:10:41.173Z,56.10
2018-09-09T15:13:09.723Z,56.20
2018-09-09T15:15:38.285Z,57.70
2018-09-09T15:18:06.934Z,57.10
2018-09-09T15:20:35.583Z,56.40
2018-09-09T15:23:04.179Z,55.70
2018-09-09T15:25:32.705Z,55.70
2018-09-09T15:28:01.339Z,54.50
2018-09-09T15:30:30.075Z,55.00
2018-09-09T15:32:58.656Z,55.80
2018-09-09T15:35:27.273Z,57.60
2018-09-09T15:37:55.830Z,58.20
2018-09-09T15:40:24.430Z,61.00
2018-09-09T15:42:53.098Z,61.60
2018-09-09T15:45:21.738Z,62.50
2018-09-09T15:47:50.341Z,63.20
2018-09-09T15:50:18.921Z,63.60
2018-09-09T15:52:47.509Z,68.10
2018-09-09T15:55:16.109Z,70.20
2018-09-09T15:57:44.733Z,68.70
2018-09-09T16:00:13.364Z,69.80
2018-09-09T16:02:41.944Z,71.20
2018-09-09T16:05:10.542Z,72.70
2018-09-09T16:07:39.111Z,72.00
2018-09-09T16:10:07.752Z,72.70
2018-09-09T16:12:36.330Z,73.60
2018-09-09T16:15:05.042Z,75.90
2018-09-09T16:17:33.651Z,75.20
2018-09-09T16:20:02.321Z,74.60
2018-09-09T16:22:30.917Z,76.50
2018-09-09T16:24:59.485Z,76.80
2018-09-09T16:27:28.080Z,77.00
2018-09-09T16:29:56.702Z,77.40
2018-09-09T16:32:25.279Z,78.40
2018-09-09T16:34:53.819Z,79.90
2018-09-09T16:37:22.398Z,79.90
2018-09-09T16:39:51.031Z,80.90
2018-09-09T16:42:19.630Z,82.20
2018-09-09T16:44:48.202Z,83.80
2018-09-09T16:47:16.742Z,84.70
2018-09-09T16:49:45.275Z,85.00
2018-09-09T16:52:13.864Z,86.20
2018-09-09T16:54:42.662Z,86.00
2018-09-09T16:57:11.221Z,88.10
2018-09-09T16:59:39.810Z,88.30
2018-09-09T17:02:08.436Z,89.30
2018-09-09T17:04:37.038Z,88.80
2018-09-09T17:07:05.704Z,91.00
2018-09-09T17:09:34.311Z,90.90
2018-09-09T17:12:02.914Z,91.10
2018-09-09T17:14:31.740Z,91.30
2018-09-09T17:17:00.454Z,91.50
2018-09-09T17:19:29.031Z,91.70
2018-09-09T17:21:57.570Z,92.20
2018-09-09T17:24:26.126Z,93.60
2018-09-09T17:26:54.666Z,94.40
2018-09-09T17:29:23.486Z,94.70
2018-09-09T17:31:52.112Z,94.90
2018-09-09T17:34:20.715Z,94.90
2018-09-09T17:36:49.331Z,95.60
2018-09-09T17:39:17.843Z,95.80
2018-09-09T17:41:46.408Z,96.20
2018-09-09T17:44:14.952Z,96.30
2018-09-09T17:46:43.504Z,96.60
2018-09-09T17:49:12.142Z,97.10
2018-09-09T17:51:40.704Z,96.80
2018-09-09T17:54:09.306Z,97.30
2018-09-09T17:56:37.871Z,97.70
2018-09-09T17:59:06.432Z,97.80
2018-09-09T18:01:34.982Z,98.10
2018-09-09T18:04:03.550Z,98.10
2018-09-09T18:06:32.149Z,98.20
2018-09-09T18:09:00.710Z,99.40
2018-09-09T18:11:29.308Z,99.70
2018-09-09T18:13:57.910Z,99.90
2018-09-09T18:16:26.494Z,99.90
2018-09-09T18:18:55.110Z,99.90
2018-09-09T18:21:23.704Z,99.90
2018-09-09T18:23:52.335Z,99.90
2018-09-09T18:26:20.943Z,99.90
2018-09-09T18:28:49.559Z,99.90
2018-09-09T18:31:18.172Z,99.90
2018-09-09T18:33:46.786Z,99.90
2018-09-09T18:36:15.368Z,99.90
2018-09-09T18:38:44.103Z,99.90
2018-09-09T18:41:12.770Z,99.90
2018-09-09T18:43:41.386Z,99.90
2018-09-09T18:46:09.965Z,99.90
2018-09-09T18:48:38.904Z,99.90
2018-09-09T18:51:07.531Z,99.90
2018-09-09T18:53:36.152Z,99.90
2018-09-09T18:56:04.731Z,99.90
2018-09-09T18:58:33.298Z,99.90
2018-09-09T19:01:01.918Z,99.90
2018-09-09T19:03:30.491Z,99.90
2018-09-09T19:05:59.022Z,99.90
2018-09-09T19:08:27.624Z,99.90
2018-09-09T19:10:56.216Z,99.90
2018-09-09T19:13:24.833Z,99.90
2018-09-09T19:15:53.458Z,99.90
2018-09-09T19:18:22.081Z,99.90
2018-09-09T19:20:51.086Z,99.90
2018-09-09T19:23:19.709Z,99.90
2018-09-09T19:25:48.345Z,99.90
2018-09-09T19:28:17.029Z,99.90
2018-09-09T19:30:45.598Z,99.90
2018-09-09T19:33:14.213Z,99.90
2018-09-09T19:35:42.820Z,99.90
2018-09-09T19:38:11.509Z,99.90
2018-09-09T19:40:40.140Z,99.90
2018-09-09T19:43:08.749Z,99.90
2018-09-09T19:45:37.367Z,99.90
2018-09-09T19:48:05.937Z,99.90
2018-09-09T19:50:34.584Z,99.90
2018-09-09T19:53:03.219Z,99.90
2018-09-09T19:55:31.893Z,99.90
2018-09-09T19:58:00.560Z,99.90
2018-09-09T20:00:29.136Z,99.90
2018-09-09T20:02:57.726Z,99.90
2018-09-09T20:05:26.348Z,99.90
2018-09-09T20:07:54.937Z,99.90
2018-09-09T20:10:23.520Z,99.90
2018-09-09T20:12:52.137Z,99.90
2018-09-09T20:15:20.746Z,99.90
2018-09-09T20:17:49.282Z,99.90
2018-09-09T20:20:17.894Z,99.90
2018-09-09T20:22:49.646Z,99.90
2018-09-09T20:25:18.240Z,99.90
2018-09-09T20:27:46.799Z,99.90
2018-09-09T20:30:15.381Z,99.90
2018-09-09T20:32:44.026Z,99.90
2018-09-09T20:35:12.562Z,99.90
2018-09-09T20:37:41.129Z,99.90
2018-09-09T20:40:09.695Z,99.90
2018-09-09T20:42:38.323Z,99.90
2018-09-09T20:45:07.506Z,99.90
2018-09-09T20:47:36.140Z,99.90
2018-09-09T20:50:04.821Z,99.90
2018-09-09T20:52:33.449Z,99.90
2018-09-09T20:55:02.035Z,99.90
2018-09-09T20:57:30.594Z,99.90
2018-09-09T20:59:59.317Z,99.90
2018-09-09T21:02:27.936Z,99.90
2018-09-09T21:04:56.536Z,99.90
2018-09-09T21:07:25.075Z,99.90
2018-09-09T21:09:53.639Z,99.90
2018-09-09T21:12:22.233Z,99.90
2018-09-09T21:14:50.834Z,99.90
2018-09-09T21:17:19.455Z,99.90
2018-09-09T21:19:48.043Z,99.90
2018-09-09T21:22:16.628Z,99.90
2018-09-09T21:24:45.273Z,99.90
2018-09-09T21:27:13.816Z,99.90
2018-09-09T21:29:42.469Z,99.90
2018-09-09T21:32:11.042Z,99.90
2018-09-09T21:34:39.633Z,99.90
2018-09-09T21:37:08.246Z,99.90
2018-09-09T21:39:36.796Z,99.90
2018-09-09T21:42:05.420Z,99.90
2018-09-09T21:44:33.965Z,99.90
2018-09-09T21:47:02.490Z,99.90
2018-09-09T21:49:31.025Z,99.90
2018-09-09T21:51:59.552Z,99.90
2018-09-09T21:54:28.138Z,99.90
2018-09-09T21:56:56.678Z,99.90
2018-09-09T21:59:25.226Z,99.90
2018-09-09T22:01:59.079Z,99.90
2018-09-09T22:04:27.629Z,99.90
2018-09-09T22:06:56.191Z,99.90
2018-09-09T22:09:24.743Z,99.90
2018-09-09T22:11:53.312Z,99.90
2018-09-09T22:14:21.896Z,99.90
2018-09-09T22:16:50.480Z,99.90
2018-09-09T22:19:18.997Z,99.90
2018-09-09T22:21:48.685Z,99.90
2018-09-09T22:24:18.630Z,99.90
2018-09-09T22:26:47.130Z,99.90
2018-09-09T22:29:15.660Z,99.90
2018-09-09T22:31:44.239Z,99.90
2018-09-09T22:34:12.805Z,99.90
2018-09-09T22:36:41.521Z,99.90
2018-09-09T22:39:11.038Z,99.90
2018-09-09T22:41:40.027Z,99.90
2018-09-09T22:44:10.781Z,99.90
2018-09-09T22:46:39.481Z,99.90
2018-09-09T22:49:08.097Z,99.90
2018-09-09T22:51:36.616Z,99.90
2018-09-09T22:54:05.462Z,99.90
2018-09-09T22:56:34.175Z,99.90
2018-09-09T22:59:02.715Z,99.90
2018-09-09T23:01:31.288Z,99.90
2018-09-09T23:03:59.869Z,99.90
2018-09-09T23:06:28.401Z,99.90
2018-09-09T23:08:56.943Z,99.90
2018-09-09T23:11:25.455Z,99.90
2018-09-09T23:13:54.003Z,99.90
2018-09-09T23:16:22.525Z,99.90
2018-09-09T23:18:51.087Z,99.90
2018-09-09T23:21:19.604Z,99.90
2018-09-09T23:23:48.141Z,99.90
2018-09-09T23:26:16.662Z,99.90
2018-09-09T23:28:45.259Z,99.90
2018-09-09T23:31:13.763Z,99.90
2018-09-09T23:33:42.281Z,99.90
2018-09-09T23:36:10.804Z,99.90
2018-09-09T23:38:39.354Z,99.90
2018-09-09T23:41:07.954Z,99.90
2018-09-09T23:43:36.487Z,99.90
2018-09-09T23:46:05.048Z,99.90
2018-09-09T23:48:33.529Z,99.90
2018-09-09T23:51:02.050Z,99.90
2018-09-09T23:53:30.656Z,99.90
2018-09-09T23:55:59.166Z,99.90
2018-09-09T23:58:27.690Z,99.90
